Terminal Aerodrome Forecast
Issued by NWS Charleston, WV

Current Version | Previous Version | Graphics & Text | Print | Product List | Glossary On
Versions: 1 2 3 4 5 6 7 8 9 10 11 12 13 14 15 16 17 18 19 20 21 22 23 24 25 26 27 28
224
FTUS41 KRLX 251617 AAA
TAFPKB
TAF AMD
KPKB 251617Z 2516/2612 27009KT P6SM VCTS BKN045CB
     FM252100 27006KT P6SM SHRA VCTS BKN045CB
     FM260000 VRB03KT P6SM BKN045
     FM260800 00000KT 5SM BR BKN015=

USA.gov is the U.S. government's official web portal to all federal, state and local government web resources and services.